createdAt,value
2023-05-08T00:02:21.993Z,76.89
2023-05-08T00:04:49.565Z,76.99
2023-05-08T00:07:18.403Z,77.18
2023-05-08T00:09:46.092Z,77.04
2023-05-08T00:12:13.610Z,77.93
2023-05-08T00:14:41.194Z,77.25
2023-05-08T00:17:08.745Z,77.76
2023-05-08T00:19:36.504Z,77.88
2023-05-08T00:22:04.009Z,78.46
2023-05-08T00:24:32.840Z,78.66
2023-05-08T00:27:00.381Z,78.29
2023-05-08T00:29:27.903Z,78.21
2023-05-08T00:31:55.549Z,76.97
2023-05-08T00:34:23.119Z,77.67
2023-05-08T00:36:50.618Z,78.46
2023-05-08T00:39:18.322Z,78.31
2023-05-08T00:41:47.267Z,78.50
2023-05-08T00:44:14.899Z,78.67
2023-05-08T00:46:42.846Z,79.07
2023-05-08T00:49:13.157Z,78.59
2023-05-08T00:51:41.077Z,78.32
2023-05-08T00:54:08.603Z,78.35
2023-05-08T00:56:36.918Z,78.87
2023-05-08T00:59:09.321Z,78.49
2023-05-08T01:01:37.923Z,76.22
2023-05-08T01:04:05.940Z,76.16
2023-05-08T01:06:34.121Z,77.99
2023-05-08T01:09:01.763Z,77.85
2023-05-08T01:11:32.090Z,78.63
2023-05-08T01:14:12.118Z,78.54
2023-05-08T01:16:43.058Z,79.70
2023-05-08T01:19:26.305Z,80.26
2023-05-08T01:21:57.970Z,78.33
2023-05-08T01:24:43.193Z,78.76
2023-05-08T01:27:36.694Z,78.20
2023-05-08T01:30:17.593Z,78.45
2023-05-08T01:32:52.247Z,77.95
2023-05-08T01:35:25.057Z,78.99
2023-05-08T01:37:58.344Z,77.71
2023-05-08T01:40:34.087Z,78.36
2023-05-08T01:43:09.303Z,79.34
2023-05-08T01:45:40.418Z,77.39
2023-05-08T01:48:11.854Z,77.04
2023-05-08T01:50:43.006Z,74.02
2023-05-08T01:53:18.259Z,76.66
2023-05-08T01:55:48.322Z,78.84
2023-05-08T01:58:16.083Z,80.36
2023-05-08T02:00:44.241Z,79.86
2023-05-08T02:03:14.823Z,78.89
2023-05-08T02:05:43.094Z,79.10
2023-05-08T02:08:12.912Z,80.37
2023-05-08T02:10:41.159Z,80.23
2023-05-08T02:13:09.814Z,80.51
2023-05-08T02:15:37.894Z,80.43
2023-05-08T02:18:06.589Z,81.05
2023-05-08T02:20:35.484Z,80.58
2023-05-08T02:23:03.364Z,81.00
2023-05-08T02:25:32.150Z,79.90
2023-05-08T02:28:00.190Z,80.30
2023-05-08T02:30:28.094Z,80.26
2023-05-08T02:33:00.209Z,80.34
2023-05-08T02:35:28.617Z,80.58
2023-05-08T02:37:58.680Z,81.29
2023-05-08T02:40:28.803Z,80.99
2023-05-08T02:42:56.484Z,79.54
2023-05-08T02:45:24.797Z,81.60
2023-05-08T02:47:57.150Z,80.48
2023-05-08T02:50:30.246Z,80.11
2023-05-08T02:53:04.703Z,81.48
2023-05-08T02:55:37.277Z,80.68
2023-05-08T02:58:11.180Z,81.57
2023-05-08T03:00:43.948Z,81.80
2023-05-08T03:03:16.949Z,80.26
2023-05-08T03:05:48.957Z,80.48
2023-05-08T03:08:20.872Z,80.28
2023-05-08T03:10:51.023Z,81.16
2023-05-08T03:13:20.180Z,80.54
2023-05-08T03:15:49.921Z,80.39
2023-05-08T03:18:19.240Z,82.42
2023-05-08T03:20:49.477Z,81.57
2023-05-08T03:23:19.991Z,81.66
2023-05-08T03:25:47.504Z,81.67
2023-05-08T03:28:15.670Z,81.48
2023-05-08T03:30:43.306Z,81.33
2023-05-08T03:33:12.596Z,81.88
2023-05-08T03:35:40.747Z,81.62
2023-05-08T03:38:08.830Z,81.65
2023-05-08T03:40:38.740Z,81.32
2023-05-08T03:43:07.676Z,81.61
2023-05-08T03:45:36.354Z,81.02
2023-05-08T03:48:04.945Z,81.05
2023-05-08T03:50:32.679Z,80.90
2023-05-08T03:53:00.455Z,80.41
2023-05-08T03:55:27.957Z,80.59
2023-05-08T03:58:03.245Z,81.45
2023-05-08T04:00:38.857Z,80.50
2023-05-08T04:03:15.135Z,79.76
2023-05-08T04:05:48.918Z,80.15
2023-05-08T04:08:18.491Z,80.93
2023-05-08T04:10:50.558Z,81.78
2023-05-08T04:13:23.294Z,79.65
2023-05-08T04:15:53.406Z,81.89
2023-05-08T04:18:26.504Z,80.27
2023-05-08T04:20:55.818Z,80.68
2023-05-08T04:23:24.271Z,80.03
2023-05-08T04:25:53.386Z,81.06
2023-05-08T04:28:22.809Z,78.98
2023-05-08T04:30:51.034Z,80.00
2023-05-08T04:33:19.082Z,81.00
2023-05-08T04:35:47.159Z,80.48
2023-05-08T04:38:14.648Z,79.88
2023-05-08T04:40:42.165Z,80.01
2023-05-08T04:43:09.646Z,79.05
2023-05-08T04:45:38.468Z,80.17
2023-05-08T04:48:07.003Z,79.46
2023-05-08T04:50:34.660Z,79.40
2023-05-08T04:53:02.208Z,80.35
2023-05-08T04:55:29.730Z,76.80
2023-05-08T04:57:57.194Z,77.76
2023-05-08T05:00:24.713Z,77.34
2023-05-08T05:02:53.592Z,79.04
2023-05-08T05:05:21.326Z,79.11
2023-05-08T05:07:48.797Z,79.38
2023-05-08T05:10:16.477Z,78.55
2023-05-08T05:12:43.978Z,77.72
2023-05-08T05:15:12.611Z,76.38
2023-05-08T05:17:40.380Z,75.86
2023-05-08T05:20:10.466Z,76.69
2023-05-08T05:22:37.973Z,76.92
2023-05-08T05:25:06.145Z,76.50
2023-05-08T05:27:35.661Z,76.54
2023-05-08T05:30:03.669Z,77.65
2023-05-08T05:32:31.288Z,77.41
2023-05-08T05:34:58.813Z,76.12
2023-05-08T05:37:28.077Z,77.24
2023-05-08T05:39:55.565Z,76.04
2023-05-08T05:42:23.228Z,76.16
2023-05-08T05:44:50.729Z,77.10
2023-05-08T05:47:18.262Z,76.31
2023-05-08T05:49:46.935Z,75.97
2023-05-08T05:52:14.583Z,76.29
2023-05-08T05:54:43.541Z,74.69
2023-05-08T05:57:11.006Z,74.71
2023-05-08T05:59:38.496Z,74.97
2023-05-08T06:02:06.441Z,74.09
2023-05-08T06:04:34.154Z,73.27
2023-05-08T06:07:01.749Z,73.79
2023-05-08T06:09:30.048Z,73.66
2023-05-08T06:11:59.410Z,72.02
2023-05-08T06:14:26.893Z,72.34
2023-05-08T06:16:54.413Z,73.24
2023-05-08T06:19:24.162Z,73.16
2023-05-08T06:21:52.014Z,72.23
2023-05-08T06:24:19.614Z,69.39
2023-05-08T06:26:47.512Z,73.17
2023-05-08T06:29:16.334Z,72.93
2023-05-08T06:31:44.054Z,71.65
2023-05-08T06:34:11.580Z,72.71
2023-05-08T06:36:39.114Z,71.37
2023-05-08T06:39:07.370Z,70.29
2023-05-08T06:41:34.864Z,71.76
2023-05-08T06:44:02.333Z,71.85
2023-05-08T06:46:31.203Z,70.15
2023-05-08T06:48:58.731Z,71.77
2023-05-08T06:51:26.275Z,71.23
2023-05-08T06:53:53.757Z,69.69
2023-05-08T06:56:22.756Z,70.77
2023-05-08T06:59:00.508Z,69.88
2023-05-08T07:01:33.632Z,66.50
2023-05-08T07:04:01.276Z,68.16
2023-05-08T07:06:28.766Z,69.00
2023-05-08T07:08:56.230Z,70.68
2023-05-08T07:11:23.905Z,70.97
2023-05-08T07:13:51.481Z,70.27
2023-05-08T07:16:19.234Z,70.10
2023-05-08T07:18:48.171Z,69.04
2023-05-08T07:21:18.062Z,67.03
2023-05-08T07:23:45.581Z,67.69
2023-05-08T07:26:13.048Z,68.83
2023-05-08T07:28:40.528Z,70.48
2023-05-08T07:31:08.407Z,68.17
2023-05-08T07:33:35.997Z,67.77
2023-05-08T07:36:05.083Z,66.99
2023-05-08T07:38:32.641Z,67.87
2023-05-08T07:41:01.945Z,68.19
2023-05-08T07:43:29.458Z,67.31
2023-05-08T07:45:57.137Z,65.93
2023-05-08T07:48:24.854Z,67.08
2023-05-08T07:50:52.390Z,67.22
2023-05-08T07:53:21.405Z,67.79
2023-05-08T07:55:48.879Z,63.21
2023-05-08T07:58:16.451Z,64.44
2023-05-08T08:00:44.633Z,64.71
2023-05-08T08:03:12.201Z,66.72
2023-05-08T08:05:39.725Z,63.44
2023-05-08T08:08:07.245Z,62.50
2023-05-08T08:10:36.046Z,62.64
2023-05-08T08:13:03.563Z,62.41
2023-05-08T08:15:31.200Z,62.66
2023-05-08T08:17:58.750Z,60.41
2023-05-08T08:20:26.286Z,61.29
2023-05-08T08:22:53.791Z,61.50
2023-05-08T08:25:21.765Z,60.03
2023-05-08T08:27:50.599Z,59.00
2023-05-08T08:30:18.889Z,62.05
2023-05-08T08:32:46.770Z,60.51
2023-05-08T08:35:14.835Z,60.84
2023-05-08T08:37:43.158Z,61.13
2023-05-08T08:40:11.158Z,59.81
2023-05-08T08:42:38.631Z,55.29
2023-05-08T08:45:08.613Z,54.73
2023-05-08T08:47:38.193Z,56.42
2023-05-08T08:50:08.070Z,59.85
2023-05-08T08:52:41.157Z,56.97
2023-05-08T08:55:11.564Z,57.46
2023-05-08T08:57:43.011Z,57.01
2023-05-08T09:00:13.147Z,53.36
2023-05-08T09:02:40.790Z,54.84
2023-05-08T09:05:09.228Z,58.44
2023-05-08T09:07:36.904Z,58.13
2023-05-08T09:10:07.693Z,55.62
2023-05-08T09:12:35.223Z,52.08
2023-05-08T09:15:03.087Z,56.36
2023-05-08T09:17:32.104Z,58.49
2023-05-08T09:19:59.749Z,58.16
2023-05-08T09:22:27.392Z,58.89
2023-05-08T09:24:56.082Z,55.89
2023-05-08T09:27:24.960Z,55.10
2023-05-08T09:30:04.184Z,56.76
2023-05-08T09:32:34.264Z,60.40
2023-05-08T09:35:02.155Z,57.72
2023-05-08T09:37:30.331Z,55.49
2023-05-08T09:40:14.671Z,54.71
2023-05-08T09:42:42.275Z,55.84
2023-05-08T09:45:11.127Z,52.85
2023-05-08T09:47:40.393Z,55.13
2023-05-08T09:50:09.215Z,52.76
2023-05-08T09:52:37.973Z,54.87
2023-05-08T09:55:07.551Z,51.11
2023-05-08T09:57:38.278Z,52.70
2023-05-08T10:00:09.083Z,53.89
2023-05-08T10:02:37.005Z,50.75
2023-05-08T10:05:07.971Z,52.53
2023-05-08T10:07:37.151Z,55.25
2023-05-08T10:10:05.902Z,52.30
2023-05-08T10:12:33.986Z,54.99
2023-05-08T10:15:01.488Z,50.70
2023-05-08T10:17:33.261Z,53.12
2023-05-08T10:20:02.228Z,52.80
2023-05-08T10:22:33.679Z,51.61
2023-05-08T10:25:02.230Z,52.00
2023-05-08T10:27:36.381Z,54.55
2023-05-08T10:30:06.051Z,52.00
2023-05-08T10:32:40.564Z,53.60
2023-05-08T10:35:10.844Z,53.61
2023-05-08T10:37:42.100Z,49.80
2023-05-08T10:40:11.670Z,50.36
2023-05-08T10:42:40.013Z,51.94
2023-05-08T10:45:08.854Z,48.74
2023-05-08T10:47:46.060Z,55.23
2023-05-08T10:50:23.990Z,53.32
2023-05-08T10:52:57.312Z,52.42
2023-05-08T10:55:29.013Z,50.03
2023-05-08T10:58:07.496Z,48.13
2023-05-08T11:01:18.254Z,50.33
2023-05-08T11:03:47.932Z,53.29
2023-05-08T11:06:15.876Z,47.34
2023-05-08T11:08:53.076Z,47.79
2023-05-08T11:11:29.415Z,50.64
2023-05-08T11:14:10.829Z,50.75
2023-05-08T11:17:06.959Z,45.68
2023-05-08T11:19:34.869Z,45.52
2023-05-08T11:22:29.079Z,44.65
2023-05-08T11:25:00.216Z,46.13
2023-05-08T11:28:04.325Z,47.93
2023-05-08T11:30:37.188Z,49.70
2023-05-08T11:33:15.543Z,47.94
2023-05-08T11:36:12.861Z,47.25
2023-05-08T11:38:40.947Z,48.28
2023-05-08T11:41:10.869Z,48.96
2023-05-08T11:44:09.452Z,44.01
2023-05-08T11:46:40.762Z,44.82
2023-05-08T11:49:12.281Z,45.20
2023-05-08T11:51:44.650Z,47.63
2023-05-08T11:54:13.028Z,45.45
2023-05-08T11:56:41.815Z,46.17
2023-05-08T11:59:11.734Z,45.82
2023-05-08T12:01:39.286Z,46.98
2023-05-08T12:04:08.461Z,49.46
2023-05-08T12:06:37.789Z,46.56
2023-05-08T12:09:11.254Z,47.22
2023-05-08T12:11:39.240Z,45.06
2023-05-08T12:14:08.132Z,43.05
2023-05-08T12:16:37.521Z,43.60
2023-05-08T12:19:05.714Z,47.87
2023-05-08T12:21:33.202Z,43.02
2023-05-08T12:24:01.426Z,43.28
2023-05-08T12:26:28.898Z,43.19
2023-05-08T12:28:57.087Z,44.18
2023-05-08T12:31:25.983Z,40.54
2023-05-08T12:33:53.545Z,42.21
2023-05-08T12:36:21.117Z,42.15
2023-05-08T12:38:48.604Z,44.11
2023-05-08T12:41:16.115Z,44.25
2023-05-08T12:43:47.969Z,44.21
2023-05-08T12:46:17.707Z,42.20
2023-05-08T12:48:46.597Z,42.50
2023-05-08T12:51:14.091Z,43.16
2023-05-08T12:53:41.556Z,41.99
2023-05-08T12:56:09.422Z,42.56
2023-05-08T12:58:36.937Z,41.39
2023-05-08T13:01:06.563Z,43.77
2023-05-08T13:03:34.454Z,42.92
2023-05-08T13:06:03.575Z,40.96
2023-05-08T13:08:33.247Z,43.94
2023-05-08T13:11:01.532Z,40.40
2023-05-08T13:13:31.507Z,39.19
2023-05-08T13:15:59.326Z,41.37
2023-05-08T13:18:28.055Z,41.46
2023-05-08T13:20:56.428Z,41.09
2023-05-08T13:23:25.572Z,40.34
2023-05-08T13:25:53.139Z,41.25
2023-05-08T13:28:20.655Z,41.52
2023-05-08T13:30:48.134Z,40.95
2023-05-08T13:33:15.628Z,41.63
2023-05-08T13:35:43.087Z,38.04
2023-05-08T13:38:10.584Z,39.97
2023-05-08T13:40:39.528Z,38.58
2023-05-08T13:43:07.042Z,39.36
2023-05-08T13:45:34.574Z,39.52
2023-05-08T13:48:02.150Z,39.80
2023-05-08T13:50:29.784Z,38.65
2023-05-08T13:52:57.294Z,39.33
2023-05-08T13:55:24.834Z,38.37
2023-05-08T13:57:53.687Z,37.14
2023-05-08T14:00:21.523Z,38.01
2023-05-08T14:02:51.525Z,39.49
2023-05-08T14:05:19.866Z,40.97
2023-05-08T14:07:47.326Z,37.23
2023-05-08T14:10:16.963Z,37.95
2023-05-08T14:12:44.519Z,38.23
2023-05-08T14:15:13.710Z,37.95
2023-05-08T14:17:42.282Z,37.65
2023-05-08T14:20:12.013Z,36.68
2023-05-08T14:22:39.747Z,35.61
2023-05-08T14:25:08.808Z,37.75
2023-05-08T14:27:36.295Z,34.80
2023-05-08T14:30:03.958Z,34.29
2023-05-08T14:32:32.853Z,33.53
2023-05-08T14:35:00.438Z,34.86
2023-05-08T14:37:27.910Z,35.65
2023-05-08T14:39:56.127Z,37.84
2023-05-08T14:42:23.895Z,34.68
2023-05-08T14:44:51.630Z,33.81
2023-05-08T14:47:19.175Z,35.39
2023-05-08T14:49:48.007Z,34.69
2023-05-08T14:52:15.762Z,34.43
2023-05-08T14:54:43.498Z,35.05
2023-05-08T14:57:11.264Z,33.85
2023-05-08T14:59:45.879Z,34.63
2023-05-08T15:02:20.637Z,33.63
2023-05-08T15:04:49.550Z,33.11
2023-05-08T15:07:17.036Z,31.88
2023-05-08T15:09:44.569Z,34.04
2023-05-08T15:12:12.254Z,32.96
2023-05-08T15:14:39.712Z,33.83
2023-05-08T15:17:07.372Z,34.06
2023-05-08T15:19:34.853Z,32.97
2023-05-08T15:22:04.217Z,34.15
2023-05-08T15:24:31.730Z,33.21
2023-05-08T15:26:59.237Z,33.61
2023-05-08T15:29:27.552Z,33.42
2023-05-08T15:31:55.085Z,32.57
2023-05-08T15:34:24.571Z,34.07
2023-05-08T15:36:53.911Z,32.20
2023-05-08T15:39:22.702Z,33.57
2023-05-08T15:41:50.172Z,32.50
2023-05-08T15:44:19.703Z,36.73
2023-05-08T15:46:47.184Z,35.49
2023-05-08T15:49:14.729Z,33.69
2023-05-08T15:51:42.224Z,34.92
2023-05-08T15:54:09.842Z,35.23
2023-05-08T15:56:38.636Z,36.56
2023-05-08T15:59:06.548Z,35.39
2023-05-08T16:01:34.911Z,36.20
2023-05-08T16:04:02.926Z,36.50
2023-05-08T16:06:30.904Z,35.61
2023-05-08T16:08:59.883Z,36.91
2023-05-08T16:11:31.134Z,35.35
2023-05-08T16:14:02.086Z,35.11
2023-05-08T16:16:29.997Z,34.58
2023-05-08T16:18:57.883Z,34.43
2023-05-08T16:21:27.351Z,34.50
2023-05-08T16:23:55.962Z,33.95
2023-05-08T16:26:23.990Z,33.29
2023-05-08T16:28:51.983Z,34.36
2023-05-08T16:31:21.339Z,35.81
2023-05-08T16:33:49.229Z,35.73
2023-05-08T16:36:17.070Z,36.04
2023-05-08T16:38:45.160Z,35.24
2023-05-08T16:41:13.484Z,36.52
2023-05-08T16:43:41.585Z,33.68
2023-05-08T16:46:09.604Z,34.35
2023-05-08T16:48:38.911Z,35.45
2023-05-08T16:51:09.210Z,35.08
2023-05-08T16:53:36.986Z,35.14
2023-05-08T16:56:05.241Z,34.21
2023-05-08T16:58:33.276Z,34.96
2023-05-08T17:01:01.511Z,33.50
2023-05-08T17:03:29.541Z,33.95
2023-05-08T17:05:58.923Z,33.52
2023-05-08T17:08:26.807Z,34.12
2023-05-08T17:10:54.818Z,34.41
2023-05-08T17:13:23.189Z,34.01
2023-05-08T17:15:51.479Z,34.34
2023-05-08T17:18:19.032Z,33.30
2023-05-08T17:20:46.871Z,33.56
2023-05-08T17:23:16.112Z,33.85
2023-05-08T17:25:44.249Z,34.88
2023-05-08T17:28:12.208Z,35.86
2023-05-08T17:30:41.858Z,33.24
2023-05-08T17:33:10.002Z,35.46
2023-05-08T17:35:38.092Z,36.22
2023-05-08T17:38:05.906Z,35.33
2023-05-08T17:40:37.185Z,34.92
2023-05-08T17:43:05.049Z,35.24
2023-05-08T17:45:32.880Z,35.38
2023-05-08T17:48:00.505Z,34.48
2023-05-08T17:50:28.009Z,35.49
2023-05-08T17:52:55.503Z,34.45
2023-05-08T17:55:23.164Z,36.05
2023-05-08T17:57:53.127Z,36.27
2023-05-08T18:00:20.805Z,36.57
2023-05-08T18:02:48.367Z,36.47
2023-05-08T18:05:16.621Z,37.07
2023-05-08T18:07:44.098Z,37.94
2023-05-08T18:10:12.499Z,37.58
2023-05-08T18:12:40.439Z,38.11
2023-05-08T18:15:10.297Z,37.32
2023-05-08T18:17:37.913Z,38.16
2023-05-08T18:20:07.763Z,37.67
2023-05-08T18:22:35.360Z,38.70
2023-05-08T18:25:03.256Z,38.53
2023-05-08T18:27:33.326Z,38.67
2023-05-08T18:30:00.981Z,38.21
2023-05-08T18:32:30.020Z,39.06
2023-05-08T18:34:57.572Z,37.71
2023-05-08T18:37:25.169Z,39.11
2023-05-08T18:39:52.680Z,40.18
2023-05-08T18:42:20.432Z,40.15
2023-05-08T18:44:48.445Z,39.41
2023-05-08T18:47:15.909Z,39.65
2023-05-08T18:49:44.737Z,40.08
2023-05-08T18:52:12.223Z,40.65
2023-05-08T18:54:39.716Z,41.32
2023-05-08T18:57:07.189Z,40.58
2023-05-08T18:59:34.700Z,40.99
2023-05-08T19:02:02.172Z,40.99
2023-05-08T19:04:29.741Z,41.60
2023-05-08T19:06:58.565Z,42.96
2023-05-08T19:09:26.084Z,41.70
2023-05-08T19:11:53.591Z,42.36
2023-05-08T19:14:21.049Z,42.15
2023-05-08T19:16:48.535Z,42.42
2023-05-08T19:19:16.030Z,42.65
2023-05-08T19:21:43.520Z,43.31
2023-05-08T19:24:12.367Z,42.55
2023-05-08T19:26:39.852Z,42.41
2023-05-08T19:29:07.514Z,41.74
2023-05-08T19:31:35.080Z,42.08
2023-05-08T19:34:02.721Z,44.77
2023-05-08T19:36:30.395Z,42.97
2023-05-08T19:38:57.878Z,43.35
2023-05-08T19:41:26.991Z,41.49
2023-05-08T19:43:54.463Z,43.01
2023-05-08T19:46:21.964Z,41.53
2023-05-08T19:48:49.466Z,41.34
2023-05-08T19:51:17.194Z,41.27
2023-05-08T19:53:44.682Z,41.31
2023-05-08T19:56:12.234Z,41.24
2023-05-08T19:58:41.020Z,41.31
2023-05-08T20:01:08.543Z,41.68
2023-05-08T20:03:36.120Z,41.22
2023-05-08T20:06:03.726Z,40.63
2023-05-08T20:08:31.271Z,41.00
2023-05-08T20:11:02.302Z,40.40
2023-05-08T20:13:29.798Z,40.98
2023-05-08T20:15:59.315Z,40.26
2023-05-08T20:18:26.973Z,40.36
2023-05-08T20:20:54.444Z,40.22
2023-05-08T20:23:21.930Z,40.22
2023-05-08T20:25:49.437Z,41.09
2023-05-08T20:28:22.106Z,40.14
2023-05-08T20:30:49.913Z,41.05
2023-05-08T20:33:18.851Z,40.29
2023-05-08T20:35:46.536Z,39.64
2023-05-08T20:38:14.706Z,40.59
2023-05-08T20:40:42.543Z,40.54
2023-05-08T20:43:10.548Z,40.12
2023-05-08T20:45:38.211Z,40.42
2023-05-08T20:48:06.269Z,40.99
2023-05-08T20:50:35.166Z,40.65
2023-05-08T20:53:02.665Z,41.08
2023-05-08T20:55:30.155Z,41.12
2023-05-08T20:57:59.317Z,41.30
2023-05-08T21:00:27.019Z,41.88
2023-05-08T21:02:54.539Z,41.48
2023-05-08T21:05:22.086Z,41.86
2023-05-08T21:07:50.911Z,42.25
2023-05-08T21:10:18.923Z,42.15
2023-05-08T21:12:46.515Z,41.93
2023-05-08T21:15:14.256Z,41.94
2023-05-08T21:17:42.020Z,42.68
2023-05-08T21:20:10.696Z,41.67
2023-05-08T21:22:38.214Z,42.81
2023-05-08T21:25:07.556Z,42.61
2023-05-08T21:27:35.053Z,42.37
2023-05-08T21:30:02.531Z,42.97
2023-05-08T21:32:30.031Z,42.41
2023-05-08T21:34:57.537Z,43.15
2023-05-08T21:37:25.113Z,43.20
2023-05-08T21:39:52.659Z,43.32
2023-05-08T21:42:21.450Z,43.92
2023-05-08T21:44:48.928Z,43.62
2023-05-08T21:47:16.396Z,43.60
2023-05-08T21:49:44.057Z,44.57
2023-05-08T21:52:11.540Z,44.20
2023-05-08T21:54:39.041Z,44.54
2023-05-08T21:57:07.508Z,44.60
2023-05-08T21:59:36.291Z,45.10
2023-05-08T22:02:03.975Z,45.46
2023-05-08T22:04:31.606Z,45.41
2023-05-08T22:06:59.093Z,45.29
2023-05-08T22:09:26.599Z,46.13
2023-05-08T22:11:54.113Z,46.18
2023-05-08T22:14:21.579Z,46.23
2023-05-08T22:16:50.914Z,46.54
2023-05-08T22:19:18.408Z,46.25
2023-05-08T22:21:45.922Z,46.29
2023-05-08T22:24:14.957Z,46.39
2023-05-08T22:26:42.482Z,47.24
2023-05-08T22:29:09.954Z,47.49
2023-05-08T22:31:37.459Z,47.83
2023-05-08T22:34:06.313Z,46.56
2023-05-08T22:36:33.803Z,47.98
2023-05-08T22:39:01.392Z,47.82
2023-05-08T22:41:30.478Z,48.15
2023-05-08T22:43:58.048Z,48.70
2023-05-08T22:46:25.910Z,48.70
2023-05-08T22:48:53.563Z,48.90
2023-05-08T22:51:22.368Z,49.01
2023-05-08T22:53:49.854Z,49.65
2023-05-08T22:56:17.325Z,49.70
2023-05-08T22:58:44.864Z,49.80
2023-05-08T23:01:13.090Z,50.21
2023-05-08T23:03:40.648Z,51.46
2023-05-08T23:06:08.288Z,50.56
2023-05-08T23:08:37.065Z,51.86
2023-05-08T23:11:04.626Z,52.09
2023-05-08T23:13:32.678Z,52.26
2023-05-08T23:16:00.228Z,52.76
2023-05-08T23:18:27.675Z,52.51
2023-05-08T23:20:55.168Z,52.86
2023-05-08T23:23:22.671Z,53.16
2023-05-08T23:25:51.464Z,53.13
2023-05-08T23:28:19.011Z,52.82
2023-05-08T23:30:46.498Z,53.13
2023-05-08T23:33:13.974Z,54.19
2023-05-08T23:35:41.467Z,52.72
2023-05-08T23:38:08.968Z,53.87
2023-05-08T23:40:36.684Z,54.35
2023-05-08T23:43:06.139Z,54.26
2023-05-08T23:45:33.640Z,54.04
2023-05-08T23:48:01.274Z,54.91
2023-05-08T23:50:28.777Z,54.61
2023-05-08T23:52:56.445Z,54.62
2023-05-08T23:55:23.925Z,55.08
2023-05-08T23:57:51.856Z,54.91
